sensor_id;sensor_type;location;lat;lon;timestamp;temperature;humidity
3069;DHT22;1545;51.728;8.796;2023-11-21T00:00:06;8.10;98.80
3069;DHT22;1545;51.728;8.796;2023-11-21T00:02:36;8.00;98.80
3069;DHT22;1545;51.728;8.796;2023-11-21T00:05:06;7.90;98.80
3069;DHT22;1545;51.728;8.796;2023-11-21T00:07:33;7.90;98.80
3069;DHT22;1545;51.728;8.796;2023-11-21T00:09:59;7.80;98.80
3069;DHT22;1545;51.728;8.796;2023-11-21T00:12:24;7.80;98.80
3069;DHT22;1545;51.728;8.796;2023-11-21T00:14:50;7.90;98.80
3069;DHT22;1545;51.728;8.796;2023-11-21T00:17:15;8.00;98.80
3069;DHT22;1545;51.728;8.796;2023-11-21T00:19:41;8.00;98.80
3069;DHT22;1545;51.728;8.796;2023-11-21T00:22:08;8.00;98.80
3069;DHT22;1545;51.728;8.796;2023-11-21T00:24:34;8.10;98.80
3069;DHT22;1545;51.728;8.796;2023-11-21T00:27:00;8.10;98.80
3069;DHT22;1545;51.728;8.796;2023-11-21T00:29:25;8.20;98.80
3069;DHT22;1545;51.728;8.796;2023-11-21T00:31:51;8.20;98.80
3069;DHT22;1545;51.728;8.796;2023-11-21T00:34:17;8.20;98.80
3069;DHT22;1545;51.728;8.796;2023-11-21T00:36:42;8.20;98.80
3069;DHT22;1545;51.728;8.796;2023-11-21T00:39:08;8.10;98.80
3069;DHT22;1545;51.728;8.796;2023-11-21T00:41:34;8.10;98.80
3069;DHT22;1545;51.728;8.796;2023-11-21T00:44:00;8.20;98.80
3069;DHT22;1545;51.728;8.796;2023-11-21T00:46:26;8.20;98.80
3069;DHT22;1545;51.728;8.796;2023-11-21T00:48:55;8.10;98.80
3069;DHT22;1545;51.728;8.796;2023-11-21T00:51:21;8.20;98.80
3069;DHT22;1545;51.728;8.796;2023-11-21T00:53:47;8.20;98.80
3069;DHT22;1545;51.728;8.796;2023-11-21T00:56:13;8.20;98.80
3069;DHT22;1545;51.728;8.796;2023-11-21T00:58:39;8.20;98.80
3069;DHT22;1545;51.728;8.796;2023-11-21T01:01:09;8.20;98.80
3069;DHT22;1545;51.728;8.796;2023-11-21T01:03:34;8.10;98.80
3069;DHT22;1545;51.728;8.796;2023-11-21T01:06:00;8.10;98.80
3069;DHT22;1545;51.728;8.796;2023-11-21T01:08:25;8.20;98.80
3069;DHT22;1545;51.728;8.796;2023-11-21T01:10:51;8.10;98.80
3069;DHT22;1545;51.728;8.796;2023-11-21T01:13:16;8.10;98.80
3069;DHT22;1545;51.728;8.796;2023-11-21T01:15:42;8.10;98.80
3069;DHT22;1545;51.728;8.796;2023-11-21T01:18:08;8.20;98.80
3069;DHT22;1545;51.728;8.796;2023-11-21T01:20:34;8.10;98.80
3069;DHT22;1545;51.728;8.796;2023-11-21T01:22:59;8.20;98.80
3069;DHT22;1545;51.728;8.796;2023-11-21T01:25:25;8.10;98.80
3069;DHT22;1545;51.728;8.796;2023-11-21T01:27:51;8.10;98.80
3069;DHT22;1545;51.728;8.796;2023-11-21T01:30:17;8.20;98.80
3069;DHT22;1545;51.728;8.796;2023-11-21T01:32:42;8.30;98.80
3069;DHT22;1545;51.728;8.796;2023-11-21T01:35:09;8.30;98.80
3069;DHT22;1545;51.728;8.796;2023-11-21T01:37:35;8.30;98.80
3069;DHT22;1545;51.728;8.796;2023-11-21T01:40:01;8.40;98.80
3069;DHT22;1545;51.728;8.796;2023-11-21T01:42:27;8.40;98.80
3069;DHT22;1545;51.728;8.796;2023-11-21T01:44:54;8.30;98.80
3069;DHT22;1545;51.728;8.796;2023-11-21T01:47:20;8.20;98.80
3069;DHT22;1545;51.728;8.796;2023-11-21T01:49:46;8.20;98.80
3069;DHT22;1545;51.728;8.796;2023-11-21T01:52:13;8.20;98.80
3069;DHT22;1545;51.728;8.796;2023-11-21T01:54:39;8.10;98.80
3069;DHT22;1545;51.728;8.796;2023-11-21T01:57:05;8.10;98.80
3069;DHT22;1545;51.728;8.796;2023-11-21T01:59:36;8.00;98.80
3069;DHT22;1545;51.728;8.796;2023-11-21T02:02:03;7.90;98.80
3069;DHT22;1545;51.728;8.796;2023-11-21T02:04:31;7.80;98.80
3069;DHT22;1545;51.728;8.796;2023-11-21T02:06:57;7.80;98.80
3069;DHT22;1545;51.728;8.796;2023-11-21T02:09:28;7.70;98.80
3069;DHT22;1545;51.728;8.796;2023-11-21T02:11:55;7.60;98.80
3069;DHT22;1545;51.728;8.796;2023-11-21T02:14:21;7.50;98.80
3069;DHT22;1545;51.728;8.796;2023-11-21T02:16:51;7.40;98.80
3069;DHT22;1545;51.728;8.796;2023-11-21T02:19:18;7.40;98.80
3069;DHT22;1545;51.728;8.796;2023-11-21T02:21:50;7.40;98.80
3069;DHT22;1545;51.728;8.796;2023-11-21T02:24:20;7.50;98.80
3069;DHT22;1545;51.728;8.796;2023-11-21T02:26:46;7.50;98.80
3069;DHT22;1545;51.728;8.796;2023-11-21T02:29:12;7.50;98.80
3069;DHT22;1545;51.728;8.796;2023-11-21T02:31:38;7.50;98.80
3069;DHT22;1545;51.728;8.796;2023-11-21T02:34:16;7.50;98.80
3069;DHT22;1545;51.728;8.796;2023-11-21T02:36:46;7.60;98.80
3069;DHT22;1545;51.728;8.796;2023-11-21T02:39:12;7.60;98.80
3069;DHT22;1545;51.728;8.796;2023-11-21T02:41:38;7.70;98.80
3069;DHT22;1545;51.728;8.796;2023-11-21T02:44:05;7.80;98.80
3069;DHT22;1545;51.728;8.796;2023-11-21T02:46:31;8.00;98.80
3069;DHT22;1545;51.728;8.796;2023-11-21T02:48:57;8.00;98.80
3069;DHT22;1545;51.728;8.796;2023-11-21T02:51:23;8.00;98.80
3069;DHT22;1545;51.728;8.796;2023-11-21T02:53:49;8.00;98.80
3069;DHT22;1545;51.728;8.796;2023-11-21T02:56:16;8.00;98.80
3069;DHT22;1545;51.728;8.796;2023-11-21T02:58:42;8.10;98.80
3069;DHT22;1545;51.728;8.796;2023-11-21T03:01:09;8.20;98.80
3069;DHT22;1545;51.728;8.796;2023-11-21T03:03:34;8.20;98.80
3069;DHT22;1545;51.728;8.796;2023-11-21T03:06:02;8.30;98.80
3069;DHT22;1545;51.728;8.796;2023-11-21T03:08:28;8.30;98.80
3069;DHT22;1545;51.728;8.796;2023-11-21T03:10:53;8.30;98.80
3069;DHT22;1545;51.728;8.796;2023-11-21T03:13:19;8.30;98.80
3069;DHT22;1545;51.728;8.796;2023-11-21T03:15:44;8.40;98.80
3069;DHT22;1545;51.728;8.796;2023-11-21T03:18:10;8.40;98.80
3069;DHT22;1545;51.728;8.796;2023-11-21T03:20:35;8.40;98.80
3069;DHT22;1545;51.728;8.796;2023-11-21T03:23:01;8.40;98.80
3069;DHT22;1545;51.728;8.796;2023-11-21T03:25:27;8.50;98.80
3069;DHT22;1545;51.728;8.796;2023-11-21T03:27:52;8.50;98.80
3069;DHT22;1545;51.728;8.796;2023-11-21T03:30:18;8.50;98.80
3069;DHT22;1545;51.728;8.796;2023-11-21T03:32:44;8.50;98.80
3069;DHT22;1545;51.728;8.796;2023-11-21T03:35:10;8.30;98.80
3069;DHT22;1545;51.728;8.796;2023-11-21T03:37:35;8.00;98.80
3069;DHT22;1545;51.728;8.796;2023-11-21T03:40:01;7.90;98.80
3069;DHT22;1545;51.728;8.796;2023-11-21T03:42:29;7.90;98.80
3069;DHT22;1545;51.728;8.796;2023-11-21T03:44:54;8.10;98.80
3069;DHT22;1545;51.728;8.796;2023-11-21T03:47:20;8.10;98.80
3069;DHT22;1545;51.728;8.796;2023-11-21T03:49:45;8.10;98.80
3069;DHT22;1545;51.728;8.796;2023-11-21T03:52:11;8.20;98.80
3069;DHT22;1545;51.728;8.796;2023-11-21T03:54:37;8.10;98.80
3069;DHT22;1545;51.728;8.796;2023-11-21T03:57:03;8.20;98.80
3069;DHT22;1545;51.728;8.796;2023-11-21T03:59:28;8.20;98.80
3069;DHT22;1545;51.728;8.796;2023-11-21T04:01:56;8.20;98.80
3069;DHT22;1545;51.728;8.796;2023-11-21T04:04:22;8.10;98.80
3069;DHT22;1545;51.728;8.796;2023-11-21T04:06:47;8.00;98.80
3069;DHT22;1545;51.728;8.796;2023-11-21T04:09:13;8.10;98.80
3069;DHT22;1545;51.728;8.796;2023-11-21T04:11:38;8.20;98.80
3069;DHT22;1545;51.728;8.796;2023-11-21T04:14:04;8.30;98.80
3069;DHT22;1545;51.728;8.796;2023-11-21T04:16:29;8.40;98.80
3069;DHT22;1545;51.728;8.796;2023-11-21T04:18:55;8.40;98.80
3069;DHT22;1545;51.728;8.796;2023-11-21T04:21:20;8.50;98.80
3069;DHT22;1545;51.728;8.796;2023-11-21T04:23:46;8.50;98.80
3069;DHT22;1545;51.728;8.796;2023-11-21T04:26:12;8.60;98.80
3069;DHT22;1545;51.728;8.796;2023-11-21T04:28:37;8.60;98.80
3069;DHT22;1545;51.728;8.796;2023-11-21T04:31:03;8.60;98.80
3069;DHT22;1545;51.728;8.796;2023-11-21T04:33:28;8.60;98.80
3069;DHT22;1545;51.728;8.796;2023-11-21T04:35:54;8.60;98.80
3069;DHT22;1545;51.728;8.796;2023-11-21T04:38:20;8.70;98.80
3069;DHT22;1545;51.728;8.796;2023-11-21T04:40:45;8.70;98.80
3069;DHT22;1545;51.728;8.796;2023-11-21T04:43:11;8.70;98.80
3069;DHT22;1545;51.728;8.796;2023-11-21T04:45:36;8.70;98.80
3069;DHT22;1545;51.728;8.796;2023-11-21T04:48:02;8.70;98.80
3069;DHT22;1545;51.728;8.796;2023-11-21T04:50:28;8.80;98.80
3069;DHT22;1545;51.728;8.796;2023-11-21T04:52:54;8.80;98.80
3069;DHT22;1545;51.728;8.796;2023-11-21T04:55:19;8.80;98.80
3069;DHT22;1545;51.728;8.796;2023-11-21T04:57:45;8.80;98.80
3069;DHT22;1545;51.728;8.796;2023-11-21T05:00:12;8.90;98.80
3069;DHT22;1545;51.728;8.796;2023-11-21T05:02:39;8.90;98.80
3069;DHT22;1545;51.728;8.796;2023-11-21T05:05:05;8.90;98.80
3069;DHT22;1545;51.728;8.796;2023-11-21T05:07:32;8.80;98.80
3069;DHT22;1545;51.728;8.796;2023-11-21T05:09:57;8.80;98.80
3069;DHT22;1545;51.728;8.796;2023-11-21T05:12:24;8.80;98.80
3069;DHT22;1545;51.728;8.796;2023-11-21T05:14:50;8.80;98.80
3069;DHT22;1545;51.728;8.796;2023-11-21T05:17:16;8.80;98.80
3069;DHT22;1545;51.728;8.796;2023-11-21T05:19:41;8.90;98.80
3069;DHT22;1545;51.728;8.796;2023-11-21T05:22:08;8.90;98.80
3069;DHT22;1545;51.728;8.796;2023-11-21T05:24:34;8.90;98.80
3069;DHT22;1545;51.728;8.796;2023-11-21T05:27:00;8.90;98.80
3069;DHT22;1545;51.728;8.796;2023-11-21T05:29:25;9.00;98.80
3069;DHT22;1545;51.728;8.796;2023-11-21T05:31:51;9.00;98.80
3069;DHT22;1545;51.728;8.796;2023-11-21T05:34:18;8.90;98.80
3069;DHT22;1545;51.728;8.796;2023-11-21T05:36:44;8.90;98.80
3069;DHT22;1545;51.728;8.796;2023-11-21T05:39:11;8.90;98.80
3069;DHT22;1545;51.728;8.796;2023-11-21T05:41:36;8.90;98.80
3069;DHT22;1545;51.728;8.796;2023-11-21T05:44:02;8.90;98.80
3069;DHT22;1545;51.728;8.796;2023-11-21T05:46:27;9.00;98.80
3069;DHT22;1545;51.728;8.796;2023-11-21T05:48:53;9.00;98.80
3069;DHT22;1545;51.728;8.796;2023-11-21T05:51:19;9.00;98.80
3069;DHT22;1545;51.728;8.796;2023-11-21T05:53:44;9.00;98.80
3069;DHT22;1545;51.728;8.796;2023-11-21T05:56:10;9.00;98.80
3069;DHT22;1545;51.728;8.796;2023-11-21T05:58:35;9.10;98.80
3069;DHT22;1545;51.728;8.796;2023-11-21T06:01:01;9.10;98.80
3069;DHT22;1545;51.728;8.796;2023-11-21T06:03:26;9.10;98.80
3069;DHT22;1545;51.728;8.796;2023-11-21T06:05:52;9.10;98.80
3069;DHT22;1545;51.728;8.796;2023-11-21T06:08:17;9.10;98.80
3069;DHT22;1545;51.728;8.796;2023-11-21T06:10:44;9.20;98.80
3069;DHT22;1545;51.728;8.796;2023-11-21T06:13:09;9.10;98.80
3069;DHT22;1545;51.728;8.796;2023-11-21T06:15:36;9.20;98.80
3069;DHT22;1545;51.728;8.796;2023-11-21T06:18:01;9.20;98.80
3069;DHT22;1545;51.728;8.796;2023-11-21T06:20:27;9.30;98.80
3069;DHT22;1545;51.728;8.796;2023-11-21T06:22:52;9.20;98.80
3069;DHT22;1545;51.728;8.796;2023-11-21T06:25:19;9.10;98.80
3069;DHT22;1545;51.728;8.796;2023-11-21T06:27:46;9.10;98.80
3069;DHT22;1545;51.728;8.796;2023-11-21T06:30:13;9.00;98.80
3069;DHT22;1545;51.728;8.796;2023-11-21T06:32:39;8.90;98.80
3069;DHT22;1545;51.728;8.796;2023-11-21T06:35:06;8.80;98.80
3069;DHT22;1545;51.728;8.796;2023-11-21T06:37:32;8.80;98.80
3069;DHT22;1545;51.728;8.796;2023-11-21T06:39:59;8.80;98.80
3069;DHT22;1545;51.728;8.796;2023-11-21T06:42:26;8.80;98.80
3069;DHT22;1545;51.728;8.796;2023-11-21T06:44:52;8.80;98.80
3069;DHT22;1545;51.728;8.796;2023-11-21T06:47:19;8.80;98.80
3069;DHT22;1545;51.728;8.796;2023-11-21T06:49:50;8.80;98.80
3069;DHT22;1545;51.728;8.796;2023-11-21T06:52:16;8.90;98.80
3069;DHT22;1545;51.728;8.796;2023-11-21T06:54:41;8.90;98.80
3069;DHT22;1545;51.728;8.796;2023-11-21T06:57:07;8.90;98.80
3069;DHT22;1545;51.728;8.796;2023-11-21T06:59:33;9.00;98.80
3069;DHT22;1545;51.728;8.796;2023-11-21T07:01:58;9.00;98.80
3069;DHT22;1545;51.728;8.796;2023-11-21T07:04:24;9.00;98.80
3069;DHT22;1545;51.728;8.796;2023-11-21T07:06:51;9.00;98.80
3069;DHT22;1545;51.728;8.796;2023-11-21T07:09:17;8.80;98.80
3069;DHT22;1545;51.728;8.796;2023-11-21T07:11:42;8.80;98.80
3069;DHT22;1545;51.728;8.796;2023-11-21T07:14:08;8.80;98.80
3069;DHT22;1545;51.728;8.796;2023-11-21T07:16:37;8.80;98.80
3069;DHT22;1545;51.728;8.796;2023-11-21T07:19:04;8.70;98.80
3069;DHT22;1545;51.728;8.796;2023-11-21T07:21:35;8.70;98.80
3069;DHT22;1545;51.728;8.796;2023-11-21T07:24:01;8.70;98.80
3069;DHT22;1545;51.728;8.796;2023-11-21T07:26:27;8.70;98.80
3069;DHT22;1545;51.728;8.796;2023-11-21T07:28:53;8.70;98.80
3069;DHT22;1545;51.728;8.796;2023-11-21T07:31:18;8.70;98.80
3069;DHT22;1545;51.728;8.796;2023-11-21T07:33:45;8.70;98.80
3069;DHT22;1545;51.728;8.796;2023-11-21T07:36:13;8.70;98.80
3069;DHT22;1545;51.728;8.796;2023-11-21T07:38:38;8.70;98.80
3069;DHT22;1545;51.728;8.796;2023-11-21T07:41:04;8.70;98.80
3069;DHT22;1545;51.728;8.796;2023-11-21T07:43:30;8.70;98.80
3069;DHT22;1545;51.728;8.796;2023-11-21T07:46:03;8.60;98.80
3069;DHT22;1545;51.728;8.796;2023-11-21T07:48:30;8.60;98.80
3069;DHT22;1545;51.728;8.796;2023-11-21T07:50:57;8.60;98.80
3069;DHT22;1545;51.728;8.796;2023-11-21T07:53:26;8.60;98.80
3069;DHT22;1545;51.728;8.796;2023-11-21T07:55:58;8.50;98.80
3069;DHT22;1545;51.728;8.796;2023-11-21T07:58:24;8.60;98.80
3069;DHT22;1545;51.728;8.796;2023-11-21T08:00:50;8.60;98.80
3069;DHT22;1545;51.728;8.796;2023-11-21T08:03:16;8.70;98.80
3069;DHT22;1545;51.728;8.796;2023-11-21T08:05:42;8.70;98.80
3069;DHT22;1545;51.728;8.796;2023-11-21T08:08:08;8.60;98.80
3069;DHT22;1545;51.728;8.796;2023-11-21T08:10:34;8.70;98.80
3069;DHT22;1545;51.728;8.796;2023-11-21T08:13:01;8.70;98.80
3069;DHT22;1545;51.728;8.796;2023-11-21T08:15:26;8.60;98.80
3069;DHT22;1545;51.728;8.796;2023-11-21T08:17:52;8.60;98.80
3069;DHT22;1545;51.728;8.796;2023-11-21T08:20:17;8.60;98.80
3069;DHT22;1545;51.728;8.796;2023-11-21T08:22:44;8.60;98.80
3069;DHT22;1545;51.728;8.796;2023-11-21T08:25:10;8.50;98.80
3069;DHT22;1545;51.728;8.796;2023-11-21T08:27:35;8.50;98.80
3069;DHT22;1545;51.728;8.796;2023-11-21T08:30:02;8.50;98.80
3069;DHT22;1545;51.728;8.796;2023-11-21T08:32:28;8.50;98.80
3069;DHT22;1545;51.728;8.796;2023-11-21T08:34:55;8.40;98.80
3069;DHT22;1545;51.728;8.796;2023-11-21T08:37:21;8.40;98.80
3069;DHT22;1545;51.728;8.796;2023-11-21T08:39:47;8.50;98.80
3069;DHT22;1545;51.728;8.796;2023-11-21T08:42:18;8.50;98.80
3069;DHT22;1545;51.728;8.796;2023-11-21T08:44:44;8.50;98.80
3069;DHT22;1545;51.728;8.796;2023-11-21T08:47:09;8.60;98.80
3069;DHT22;1545;51.728;8.796;2023-11-21T08:49:35;8.60;98.80
3069;DHT22;1545;51.728;8.796;2023-11-21T08:52:00;8.60;98.80
3069;DHT22;1545;51.728;8.796;2023-11-21T08:54:41;8.60;98.80
3069;DHT22;1545;51.728;8.796;2023-11-21T08:57:06;8.60;98.80
3069;DHT22;1545;51.728;8.796;2023-11-21T08:59:32;8.50;98.80
3069;DHT22;1545;51.728;8.796;2023-11-21T09:01:58;8.50;98.80
3069;DHT22;1545;51.728;8.796;2023-11-21T09:04:23;8.50;98.80
3069;DHT22;1545;51.728;8.796;2023-11-21T09:06:49;8.50;98.80
3069;DHT22;1545;51.728;8.796;2023-11-21T09:09:14;8.50;98.80
3069;DHT22;1545;51.728;8.796;2023-11-21T09:11:40;8.60;98.80
3069;DHT22;1545;51.728;8.796;2023-11-21T09:14:05;8.60;98.80
3069;DHT22;1545;51.728;8.796;2023-11-21T09:16:31;8.60;98.80
3069;DHT22;1545;51.728;8.796;2023-11-21T09:18:57;8.60;98.80
3069;DHT22;1545;51.728;8.796;2023-11-21T09:21:22;8.60;98.80
3069;DHT22;1545;51.728;8.796;2023-11-21T09:23:49;8.60;98.80
3069;DHT22;1545;51.728;8.796;2023-11-21T09:26:14;8.60;98.80
3069;DHT22;1545;51.728;8.796;2023-11-21T09:28:41;8.60;98.80
3069;DHT22;1545;51.728;8.796;2023-11-21T09:31:11;8.60;98.80
3069;DHT22;1545;51.728;8.796;2023-11-21T09:33:37;8.60;98.80
3069;DHT22;1545;51.728;8.796;2023-11-21T09:36:04;8.40;98.80
3069;DHT22;1545;51.728;8.796;2023-11-21T09:38:30;8.40;98.80
3069;DHT22;1545;51.728;8.796;2023-11-21T09:40:56;8.40;98.80
3069;DHT22;1545;51.728;8.796;2023-11-21T09:43:25;8.40;98.80
3069;DHT22;1545;51.728;8.796;2023-11-21T09:45:59;8.40;98.80
3069;DHT22;1545;51.728;8.796;2023-11-21T09:48:26;8.40;98.80
3069;DHT22;1545;51.728;8.796;2023-11-21T09:50:53;8.40;98.80
3069;DHT22;1545;51.728;8.796;2023-11-21T09:53:20;8.40;98.80
3069;DHT22;1545;51.728;8.796;2023-11-21T09:55:50;8.40;98.80
3069;DHT22;1545;51.728;8.796;2023-11-21T09:58:16;8.40;98.80
3069;DHT22;1545;51.728;8.796;2023-11-21T10:00:47;8.40;98.80
3069;DHT22;1545;51.728;8.796;2023-11-21T10:03:13;8.40;98.80
3069;DHT22;1545;51.728;8.796;2023-11-21T10:05:40;8.40;98.80
3069;DHT22;1545;51.728;8.796;2023-11-21T10:08:10;8.40;98.80
3069;DHT22;1545;51.728;8.796;2023-11-21T10:10:43;8.40;98.80
3069;DHT22;1545;51.728;8.796;2023-11-21T10:13:14;8.40;98.80
3069;DHT22;1545;51.728;8.796;2023-11-21T10:15:42;8.40;98.80
3069;DHT22;1545;51.728;8.796;2023-11-21T10:18:14;8.40;98.80
3069;DHT22;1545;51.728;8.796;2023-11-21T10:20:40;8.50;98.80
3069;DHT22;1545;51.728;8.796;2023-11-21T10:23:07;8.40;98.80
3069;DHT22;1545;51.728;8.796;2023-11-21T10:25:36;8.50;98.80
3069;DHT22;1545;51.728;8.796;2023-11-21T10:28:03;8.50;98.80
3069;DHT22;1545;51.728;8.796;2023-11-21T10:30:34;8.30;98.80
3069;DHT22;1545;51.728;8.796;2023-11-21T10:33:06;8.40;98.80
3069;DHT22;1545;51.728;8.796;2023-11-21T10:35:45;8.40;98.80
3069;DHT22;1545;51.728;8.796;2023-11-21T10:38:16;8.30;98.80
3069;DHT22;1545;51.728;8.796;2023-11-21T10:40:42;8.30;98.80
3069;DHT22;1545;51.728;8.796;2023-11-21T10:43:10;8.30;98.80
3069;DHT22;1545;51.728;8.796;2023-11-21T10:45:37;8.30;98.80
3069;DHT22;1545;51.728;8.796;2023-11-21T10:48:08;8.30;98.80
3069;DHT22;1545;51.728;8.796;2023-11-21T10:50:36;8.40;98.80
3069;DHT22;1545;51.728;8.796;2023-11-21T10:53:05;8.40;98.80
3069;DHT22;1545;51.728;8.796;2023-11-21T10:55:32;8.40;98.80
3069;DHT22;1545;51.728;8.796;2023-11-21T10:58:00;8.40;98.80
3069;DHT22;1545;51.728;8.796;2023-11-21T11:00:28;8.40;98.80
3069;DHT22;1545;51.728;8.796;2023-11-21T11:02:54;8.50;98.80
3069;DHT22;1545;51.728;8.796;2023-11-21T11:05:22;8.50;98.80
3069;DHT22;1545;51.728;8.796;2023-11-21T11:07:51;8.40;98.80
3069;DHT22;1545;51.728;8.796;2023-11-21T11:10:21;8.40;98.80
3069;DHT22;1545;51.728;8.796;2023-11-21T11:12:48;8.40;98.80
3069;DHT22;1545;51.728;8.796;2023-11-21T11:15:16;8.50;98.80
3069;DHT22;1545;51.728;8.796;2023-11-21T11:17:41;8.60;98.80
3069;DHT22;1545;51.728;8.796;2023-11-21T11:20:11;8.60;98.80
3069;DHT22;1545;51.728;8.796;2023-11-21T11:22:47;8.50;98.80
3069;DHT22;1545;51.728;8.796;2023-11-21T11:28:32;8.70;98.80
3069;DHT22;1545;51.728;8.796;2023-11-21T11:31:24;8.70;98.80
3069;DHT22;1545;51.728;8.796;2023-11-21T11:34:15;8.80;98.80
3069;DHT22;1545;51.728;8.796;2023-11-21T11:36:54;8.80;98.80
3069;DHT22;1545;51.728;8.796;2023-11-21T11:39:41;8.80;98.80
3069;DHT22;1545;51.728;8.796;2023-11-21T11:42:08;8.80;98.80
3069;DHT22;1545;51.728;8.796;2023-11-21T11:47:15;8.80;98.80
3069;DHT22;1545;51.728;8.796;2023-11-21T11:50:09;8.90;98.80
3069;DHT22;1545;51.728;8.796;2023-11-21T11:52:51;8.90;98.80
3069;DHT22;1545;51.728;8.796;2023-11-21T11:55:20;8.90;98.80
3069;DHT22;1545;51.728;8.796;2023-11-21T11:57:51;8.90;98.80
3069;DHT22;1545;51.728;8.796;2023-11-21T12:02:55;8.80;98.80
3069;DHT22;1545;51.728;8.796;2023-11-21T12:05:25;8.50;98.80
3069;DHT22;1545;51.728;8.796;2023-11-21T12:07:55;8.40;98.80
3069;DHT22;1545;51.728;8.796;2023-11-21T12:10:27;8.20;98.80
3069;DHT22;1545;51.728;8.796;2023-11-21T12:12:56;8.10;98.80
3069;DHT22;1545;51.728;8.796;2023-11-21T12:15:23;8.00;98.80
3069;DHT22;1545;51.728;8.796;2023-11-21T12:17:49;7.90;98.80
3069;DHT22;1545;51.728;8.796;2023-11-21T12:20:19;7.90;98.80
3069;DHT22;1545;51.728;8.796;2023-11-21T12:22:49;7.90;98.80
3069;DHT22;1545;51.728;8.796;2023-11-21T12:25:21;7.90;98.80
3069;DHT22;1545;51.728;8.796;2023-11-21T12:27:48;8.10;98.80
3069;DHT22;1545;51.728;8.796;2023-11-21T12:30:19;8.20;98.80
3069;DHT22;1545;51.728;8.796;2023-11-21T12:32:48;8.20;98.80
3069;DHT22;1545;51.728;8.796;2023-11-21T12:35:14;8.20;98.80
3069;DHT22;1545;51.728;8.796;2023-11-21T12:37:41;8.20;98.80
3069;DHT22;1545;51.728;8.796;2023-11-21T12:40:08;7.90;98.80
3069;DHT22;1545;51.728;8.796;2023-11-21T12:42:38;7.90;98.80
3069;DHT22;1545;51.728;8.796;2023-11-21T12:45:08;7.70;98.80
3069;DHT22;1545;51.728;8.796;2023-11-21T12:47:37;7.80;98.80
3069;DHT22;1545;51.728;8.796;2023-11-21T12:50:03;7.70;98.80
3069;DHT22;1545;51.728;8.796;2023-11-21T12:52:30;7.60;98.80
3069;DHT22;1545;51.728;8.796;2023-11-21T12:54:56;7.60;98.80
3069;DHT22;1545;51.728;8.796;2023-11-21T12:57:25;7.60;98.80
3069;DHT22;1545;51.728;8.796;2023-11-21T12:59:57;7.60;98.80
3069;DHT22;1545;51.728;8.796;2023-11-21T13:02:25;7.60;98.80
3069;DHT22;1545;51.728;8.796;2023-11-21T13:04:54;7.60;98.80
3069;DHT22;1545;51.728;8.796;2023-11-21T13:07:19;7.50;98.80
3069;DHT22;1545;51.728;8.796;2023-11-21T13:09:46;7.50;98.80
3069;DHT22;1545;51.728;8.796;2023-11-21T13:12:12;7.40;98.80
3069;DHT22;1545;51.728;8.796;2023-11-21T13:14:40;7.30;98.80
3069;DHT22;1545;51.728;8.796;2023-11-21T13:17:05;7.30;98.80
3069;DHT22;1545;51.728;8.796;2023-11-21T13:19:31;7.30;98.80
3069;DHT22;1545;51.728;8.796;2023-11-21T13:21:56;7.30;98.80
3069;DHT22;1545;51.728;8.796;2023-11-21T13:24:23;7.30;98.80
3069;DHT22;1545;51.728;8.796;2023-11-21T13:26:50;7.10;98.80
3069;DHT22;1545;51.728;8.796;2023-11-21T13:29:16;6.90;98.80
3069;DHT22;1545;51.728;8.796;2023-11-21T13:31:41;6.90;98.80
3069;DHT22;1545;51.728;8.796;2023-11-21T13:34:07;6.90;98.80
3069;DHT22;1545;51.728;8.796;2023-11-21T13:36:33;6.90;98.80
3069;DHT22;1545;51.728;8.796;2023-11-21T13:39:00;6.90;98.80
3069;DHT22;1545;51.728;8.796;2023-11-21T13:41:33;6.90;98.80
3069;DHT22;1545;51.728;8.796;2023-11-21T13:43:59;6.80;98.80
3069;DHT22;1545;51.728;8.796;2023-11-21T13:46:44;6.80;98.80
3069;DHT22;1545;51.728;8.796;2023-11-21T13:49:10;6.90;98.80
3069;DHT22;1545;51.728;8.796;2023-11-21T13:51:36;6.80;98.80
3069;DHT22;1545;51.728;8.796;2023-11-21T13:54:10;6.80;98.80
3069;DHT22;1545;51.728;8.796;2023-11-21T13:56:36;6.70;98.80
3069;DHT22;1545;51.728;8.796;2023-11-21T13:59:02;6.70;98.80
3069;DHT22;1545;51.728;8.796;2023-11-21T14:01:48;6.70;98.80
3069;DHT22;1545;51.728;8.796;2023-11-21T14:04:26;6.70;98.80
3069;DHT22;1545;51.728;8.796;2023-11-21T14:07:10;6.80;98.80
3069;DHT22;1545;51.728;8.796;2023-11-21T14:09:51;6.80;98.80
3069;DHT22;1545;51.728;8.796;2023-11-21T14:12:18;6.80;98.80
3069;DHT22;1545;51.728;8.796;2023-11-21T14:14:43;6.80;98.80
3069;DHT22;1545;51.728;8.796;2023-11-21T14:17:10;6.70;98.80
3069;DHT22;1545;51.728;8.796;2023-11-21T14:19:36;6.80;98.80
3069;DHT22;1545;51.728;8.796;2023-11-21T14:22:05;6.80;98.80
3069;DHT22;1545;51.728;8.796;2023-11-21T14:24:33;6.70;98.80
3069;DHT22;1545;51.728;8.796;2023-11-21T14:26:58;6.70;98.80
3069;DHT22;1545;51.728;8.796;2023-11-21T14:29:24;6.70;98.80
3069;DHT22;1545;51.728;8.796;2023-11-21T14:31:50;6.80;98.80
3069;DHT22;1545;51.728;8.796;2023-11-21T14:34:17;6.70;98.80
3069;DHT22;1545;51.728;8.796;2023-11-21T14:36:43;6.70;98.80
3069;DHT22;1545;51.728;8.796;2023-11-21T14:39:10;6.60;98.80
3069;DHT22;1545;51.728;8.796;2023-11-21T14:41:46;6.60;98.80
3069;DHT22;1545;51.728;8.796;2023-11-21T14:44:12;6.70;98.80
3069;DHT22;1545;51.728;8.796;2023-11-21T14:46:39;6.70;98.80
3069;DHT22;1545;51.728;8.796;2023-11-21T14:49:08;6.70;98.80
3069;DHT22;1545;51.728;8.796;2023-11-21T14:51:51;6.60;98.80
3069;DHT22;1545;51.728;8.796;2023-11-21T14:54:30;6.60;98.80
3069;DHT22;1545;51.728;8.796;2023-11-21T14:57:12;6.70;98.80
3069;DHT22;1545;51.728;8.796;2023-11-21T14:59:49;6.70;98.80
3069;DHT22;1545;51.728;8.796;2023-11-21T15:02:22;6.70;98.80
3069;DHT22;1545;51.728;8.796;2023-11-21T15:05:07;6.60;98.80
3069;DHT22;1545;51.728;8.796;2023-11-21T15:07:34;6.60;98.80
3069;DHT22;1545;51.728;8.796;2023-11-21T15:09:59;6.50;98.80
3069;DHT22;1545;51.728;8.796;2023-11-21T15:12:25;6.40;98.80
3069;DHT22;1545;51.728;8.796;2023-11-21T15:14:52;6.40;98.80
3069;DHT22;1545;51.728;8.796;2023-11-21T15:17:19;6.40;98.80
3069;DHT22;1545;51.728;8.796;2023-11-21T15:19:56;6.40;98.80
3069;DHT22;1545;51.728;8.796;2023-11-21T15:22:22;6.40;98.80
3069;DHT22;1545;51.728;8.796;2023-11-21T15:24:48;6.40;98.80
3069;DHT22;1545;51.728;8.796;2023-11-21T15:27:15;6.40;98.80
3069;DHT22;1545;51.728;8.796;2023-11-21T15:29:41;6.40;98.80
3069;DHT22;1545;51.728;8.796;2023-11-21T15:32:08;6.30;98.80
3069;DHT22;1545;51.728;8.796;2023-11-21T15:34:34;6.30;98.80
3069;DHT22;1545;51.728;8.796;2023-11-21T15:37:00;6.30;98.80
3069;DHT22;1545;51.728;8.796;2023-11-21T15:39:26;6.30;98.80
3069;DHT22;1545;51.728;8.796;2023-11-21T15:41:58;6.30;98.80
3069;DHT22;1545;51.728;8.796;2023-11-21T15:44:24;6.30;98.80
3069;DHT22;1545;51.728;8.796;2023-11-21T15:46:52;6.30;98.80
3069;DHT22;1545;51.728;8.796;2023-11-21T15:49:17;6.30;98.80
3069;DHT22;1545;51.728;8.796;2023-11-21T15:51:47;6.20;98.80
3069;DHT22;1545;51.728;8.796;2023-11-21T15:54:18;6.30;98.80
3069;DHT22;1545;51.728;8.796;2023-11-21T15:56:45;6.30;98.80
3069;DHT22;1545;51.728;8.796;2023-11-21T15:59:11;6.30;98.80
3069;DHT22;1545;51.728;8.796;2023-11-21T16:01:36;6.40;98.80
3069;DHT22;1545;51.728;8.796;2023-11-21T16:04:07;6.50;98.80
3069;DHT22;1545;51.728;8.796;2023-11-21T16:06:32;6.50;98.80
3069;DHT22;1545;51.728;8.796;2023-11-21T16:09:07;6.40;98.80
3069;DHT22;1545;51.728;8.796;2023-11-21T16:11:43;6.40;98.80
3069;DHT22;1545;51.728;8.796;2023-11-21T16:14:09;6.30;98.80
3069;DHT22;1545;51.728;8.796;2023-11-21T16:16:34;6.40;98.80
3069;DHT22;1545;51.728;8.796;2023-11-21T16:19:00;6.40;98.70
3069;DHT22;1545;51.728;8.796;2023-11-21T16:21:25;6.40;98.80
3069;DHT22;1545;51.728;8.796;2023-11-21T16:23:50;6.50;98.80
3069;DHT22;1545;51.728;8.796;2023-11-21T16:26:16;6.40;98.80